createdAt,value
2022-08-19T00:01:44.170Z,99153.52
2022-08-19T00:06:48.962Z,99140.73
2022-08-19T00:11:53.578Z,99138.83
2022-08-19T00:16:56.609Z,99140.20
2022-08-19T00:22:00.368Z,99142.95
2022-08-19T00:27:25.203Z,99147.42
2022-08-19T00:32:27.254Z,99157.40
2022-08-19T00:37:30.263Z,99153.67
2022-08-19T00:42:33.802Z,99156.69
2022-08-19T00:47:36.884Z,99160.23
2022-08-19T00:52:46.548Z,99159.11
2022-08-19T00:57:57.385Z,99155.92
2022-08-19T01:03:00.519Z,99149.42
2022-08-19T01:08:06.910Z,99147.82
2022-08-19T01:13:11.601Z,99143.81
2022-08-19T01:18:18.311Z,99143.11
2022-08-19T01:23:21.461Z,99135.98
2022-08-19T01:28:39.644Z,99144.89
2022-08-19T01:33:43.990Z,99142.11
2022-08-19T01:38:47.356Z,99137.30
2022-08-19T01:44:13.890Z,99131.79
2022-08-19T01:49:18.265Z,99136.95
2022-08-19T01:54:27.912Z,99141.33
2022-08-19T01:59:33.251Z,99139.27
2022-08-19T02:04:39.174Z,99136.84
2022-08-19T02:09:43.167Z,99129.70
2022-08-19T02:14:46.181Z,99130.77
2022-08-19T02:19:50.195Z,99125.54
2022-08-19T02:24:55.272Z,99121.48
2022-08-19T02:29:58.307Z,99126.64
2022-08-19T02:35:01.363Z,99134.25
2022-08-19T02:40:12.336Z,99133.14
2022-08-19T02:45:16.105Z,99127.73
2022-08-19T02:50:19.779Z,99129.60
2022-08-19T02:55:22.854Z,99138.66
2022-08-19T03:00:25.889Z,99138.27
2022-08-19T03:05:48.161Z,99138.95
2022-08-19T03:10:53.197Z,99130.79
2022-08-19T03:15:56.386Z,99132.58
2022-08-19T03:20:59.498Z,99134.90
2022-08-19T03:26:16.518Z,99129.41
2022-08-19T03:31:45.202Z,99135.15
2022-08-19T03:36:48.423Z,99136.59
2022-08-19T03:42:32.904Z,99134.66
2022-08-19T03:47:20.150Z,99135.08
2022-08-19T03:52:23.124Z,99136.31
2022-08-19T03:57:27.848Z,99129.20
2022-08-19T04:02:35.304Z,99133.81
2022-08-19T04:07:38.354Z,99125.36
2022-08-19T04:12:41.530Z,99119.85
2022-08-19T04:17:44.560Z,99122.23
2022-08-19T04:22:47.662Z,99120.73
2022-08-19T04:27:51.051Z,99129.02
2022-08-19T04:32:54.549Z,99130.84
2022-08-19T04:37:57.809Z,99130.89
2022-08-19T04:43:02.120Z,99139.01
2022-08-19T04:48:19.737Z,99154.11
2022-08-19T04:53:38.020Z,99153.73
2022-08-19T04:58:43.890Z,99152.60
2022-08-19T05:03:46.989Z,99153.90
2022-08-19T05:08:51.013Z,99145.78
2022-08-19T05:13:54.151Z,99140.98
2022-08-19T05:19:16.094Z,99144.20
2022-08-19T05:24:20.395Z,99143.88
2022-08-19T05:29:26.364Z,99158.96
2022-08-19T05:34:39.523Z,99165.45
2022-08-19T05:39:43.156Z,99161.27
2022-08-19T05:44:46.206Z,99142.14
2022-08-19T05:49:51.208Z,99139.02
2022-08-19T05:54:57.024Z,99150.33
2022-08-19T06:00:02.878Z,99159.52
2022-08-19T06:05:10.065Z,99153.57
2022-08-19T06:10:13.195Z,99163.69
2022-08-19T06:15:16.994Z,99171.64
2022-08-19T06:20:39.888Z,99175.33
2022-08-19T06:25:44.995Z,99165.91
2022-08-19T06:30:47.999Z,99167.63
2022-08-19T06:35:51.092Z,99165.98
2022-08-19T06:41:07.428Z,99165.38
2022-08-19T06:46:17.495Z,99166.08
2022-08-19T06:51:21.713Z,99165.30
2022-08-19T06:56:34.782Z,99166.96
2022-08-19T07:01:48.225Z,99159.05
2022-08-19T07:06:57.788Z,99165.60
2022-08-19T07:12:02.514Z,99165.02
2022-08-19T07:17:13.692Z,99165.23
2022-08-19T07:22:17.356Z,99171.39
2022-08-19T07:27:22.520Z,99178.45
2022-08-19T07:32:28.187Z,99179.20
2022-08-19T07:37:33.385Z,99167.39
2022-08-19T07:42:37.724Z,99169.98
2022-08-19T07:47:48.058Z,99169.71
2022-08-19T07:52:54.090Z,99172.43
2022-08-19T07:57:57.134Z,99177.30
2022-08-19T08:03:00.344Z,99171.48
2022-08-19T08:08:22.490Z,99161.44
2022-08-19T08:13:31.076Z,99154.48
2022-08-19T08:18:42.518Z,99155.40
2022-08-19T08:23:45.659Z,99151.60
2022-08-19T08:28:49.657Z,99154.09
2022-08-19T08:33:53.116Z,99153.81
2022-08-19T08:44:05.925Z,99174.67
2022-08-19T08:49:25.336Z,99183.63
2022-08-19T08:54:48.792Z,99190.02
2022-08-19T08:59:56.104Z,99196.44
2022-08-19T09:04:59.627Z,99187.02
2022-08-19T09:10:44.408Z,99191.84
2022-08-19T09:15:56.992Z,99199.37
2022-08-19T09:21:00.225Z,99202.05
2022-08-19T09:26:22.275Z,99194.14
2022-08-19T09:31:29.589Z,99198.30
2022-08-19T09:36:35.347Z,99199.55
2022-08-19T09:41:38.834Z,99193.67
2022-08-19T09:46:52.309Z,99195.77
2022-08-19T09:51:57.177Z,99191.24
2022-08-19T09:57:01.565Z,99184.87
2022-08-19T10:02:10.838Z,99189.80
2022-08-19T10:07:14.433Z,99198.93
2022-08-19T10:12:17.829Z,99199.55
2022-08-19T10:17:26.779Z,99197.90
2022-08-19T10:22:36.907Z,99191.52
2022-08-19T10:27:40.011Z,99183.42
2022-08-19T10:32:46.340Z,99179.77
2022-08-19T10:37:57.230Z,99172.44
2022-08-19T10:43:00.973Z,99174.83
2022-08-19T10:48:04.726Z,99182.14
2022-08-19T10:53:09.912Z,99177.65
2022-08-19T10:58:16.190Z,99172.10
2022-08-19T11:03:19.767Z,99169.19
2022-08-19T11:08:24.155Z,99172.39
2022-08-19T11:13:34.601Z,99163.55
2022-08-19T11:18:43.830Z,99167.02
2022-08-19T11:23:53.507Z,99157.77
2022-08-19T11:28:58.276Z,99159.48
2022-08-19T11:34:04.273Z,99150.96
2022-08-19T11:39:09.241Z,99145.86
2022-08-19T11:44:15.137Z,99136.58
2022-08-19T11:49:20.694Z,99130.58
2022-08-19T11:54:23.748Z,99130.88
2022-08-19T11:59:28.047Z,99131.14
2022-08-19T12:04:32.799Z,99127.77
2022-08-19T12:09:36.222Z,99124.16
2022-08-19T12:14:39.719Z,99119.04
2022-08-19T12:19:42.760Z,99107.34
2022-08-19T12:24:45.809Z,99110.73
2022-08-19T12:29:49.858Z,99105.48
2022-08-19T12:34:52.890Z,99098.56
2022-08-19T12:39:56.022Z,99093.02
2022-08-19T12:44:59.231Z,99092.38
2022-08-19T12:50:06.899Z,99085.23
2022-08-19T12:55:12.665Z,99083.48
2022-08-19T13:00:22.223Z,99081.87
2022-08-19T13:05:30.360Z,99081.83
2022-08-19T13:10:36.169Z,99077.55
2022-08-19T13:15:43.114Z,99076.40
2022-08-19T13:20:52.687Z,99065.25
2022-08-19T13:26:06.851Z,99052.84
2022-08-19T13:31:28.311Z,99047.21
2022-08-19T13:36:31.424Z,99051.98
2022-08-19T13:41:35.505Z,99058.23
2022-08-19T13:46:38.559Z,99062.67
2022-08-19T13:51:43.026Z,99070.83
2022-08-19T13:56:46.893Z,99074.25
2022-08-19T14:01:49.914Z,99067.23
2022-08-19T14:06:52.959Z,99074.68
2022-08-19T14:11:56.501Z,99076.56
2022-08-19T14:16:59.476Z,99081.02
2022-08-19T14:22:02.534Z,99085.98
2022-08-19T14:27:05.813Z,99084.07
2022-08-19T14:32:08.933Z,99078.41
2022-08-19T14:37:16.232Z,99076.00
2022-08-19T14:42:20.265Z,99077.73
2022-08-19T14:47:23.326Z,99071.00
2022-08-19T14:52:27.085Z,99069.16
2022-08-19T14:57:30.154Z,99067.61
2022-08-19T15:02:34.484Z,99063.21
2022-08-19T15:07:39.435Z,99059.77
2022-08-19T15:12:43.977Z,99056.55
2022-08-19T15:17:47.638Z,99058.13
2022-08-19T15:22:51.029Z,99060.04
2022-08-19T15:27:55.037Z,99055.17
2022-08-19T15:32:59.226Z,99062.70
2022-08-19T15:38:02.327Z,99054.20
2022-08-19T15:43:05.365Z,99050.48
2022-08-19T15:48:09.038Z,99048.95
2022-08-19T15:53:13.161Z,99046.45
2022-08-19T15:58:35.150Z,99044.98
2022-08-19T16:03:56.664Z,99040.80
2022-08-19T16:09:03.329Z,99033.39
2022-08-19T16:14:08.722Z,99038.30
2022-08-19T16:19:12.819Z,99042.84
2022-08-19T16:24:19.408Z,99044.05
2022-08-19T16:29:34.783Z,99046.02
2022-08-19T16:34:42.951Z,99054.20
2022-08-19T16:39:45.986Z,99056.21
2022-08-19T16:44:49.170Z,99049.96
2022-08-19T16:49:55.210Z,99041.25
2022-08-19T16:54:58.669Z,99035.88
2022-08-19T17:00:08.918Z,99027.95
2022-08-19T17:05:11.987Z,99021.74
2022-08-19T17:10:15.050Z,99022.00
2022-08-19T17:15:18.127Z,99026.73
2022-08-19T17:20:21.655Z,99027.29
2022-08-19T17:25:27.241Z,99026.05
2022-08-19T17:30:32.086Z,99032.02
2022-08-19T17:35:36.045Z,99054.19
2022-08-19T17:40:42.479Z,99074.58
2022-08-19T17:45:46.779Z,99088.67
2022-08-19T17:50:51.732Z,99091.89
2022-08-19T17:55:54.749Z,99102.63
2022-08-19T18:01:00.887Z,99113.16
2022-08-19T18:06:04.135Z,99118.82
2022-08-19T18:11:09.564Z,99122.09
2022-08-19T18:16:13.612Z,99124.63
2022-08-19T18:21:17.090Z,99129.13
2022-08-19T18:26:20.477Z,99122.02
2022-08-19T18:31:24.090Z,99113.37
2022-08-19T18:36:52.619Z,99107.27
2022-08-19T18:42:11.335Z,99096.87
2022-08-19T18:47:32.917Z,99093.43
2022-08-19T18:52:37.221Z,99088.55
2022-08-19T18:57:40.207Z,99090.73
2022-08-19T19:02:46.632Z,99090.71
2022-08-19T19:07:50.709Z,99108.55
2022-08-19T19:12:53.806Z,99117.95
2022-08-19T19:17:56.891Z,99117.27
2022-08-19T19:23:04.555Z,99114.99
2022-08-19T19:28:07.586Z,99131.38
2022-08-19T19:33:14.124Z,99144.42
2022-08-19T19:38:17.113Z,99148.45
2022-08-19T19:43:20.147Z,99133.81
2022-08-19T19:48:25.028Z,99124.20
2022-08-19T19:53:30.147Z,99133.33
2022-08-19T19:58:36.576Z,99127.41
2022-08-19T20:03:40.997Z,99128.56
2022-08-19T20:09:03.960Z,99136.64
2022-08-19T20:14:29.282Z,99147.54
2022-08-19T20:19:37.503Z,99154.90
2022-08-19T20:24:42.546Z,99159.02
2022-08-19T20:29:46.484Z,99158.95
2022-08-19T20:34:51.821Z,99159.92
2022-08-19T20:39:54.942Z,99165.67
2022-08-19T20:44:58.057Z,99159.34
2022-08-19T20:50:01.951Z,99148.02
2022-08-19T20:55:05.611Z,99145.07
2022-08-19T21:00:13.519Z,99148.45
2022-08-19T21:05:16.555Z,99141.65
2022-08-19T21:10:19.719Z,99138.95
2022-08-19T21:15:24.741Z,99132.24
2022-08-19T21:20:27.688Z,99131.46
2022-08-19T21:25:30.768Z,99124.95
2022-08-19T21:30:34.667Z,99124.79
2022-08-19T21:35:39.693Z,99125.80
2022-08-19T21:40:42.710Z,99129.34
2022-08-19T21:45:47.709Z,99140.30
2022-08-19T21:50:51.139Z,99151.30
2022-08-19T21:55:54.140Z,99160.32
2022-08-19T22:00:57.832Z,99168.56
2022-08-19T22:06:01.779Z,99175.40
2022-08-19T22:11:05.011Z,99176.91
2022-08-19T22:16:09.765Z,99169.89
2022-08-19T22:21:13.451Z,99160.96
2022-08-19T22:26:18.008Z,99148.86
2022-08-19T22:31:21.080Z,99144.64
2022-08-19T22:36:24.750Z,99132.38
2022-08-19T22:41:27.955Z,99133.98
2022-08-19T22:46:33.817Z,99131.33
2022-08-19T22:51:55.305Z,99128.65
2022-08-19T22:56:58.291Z,99132.23
2022-08-19T23:02:01.318Z,99131.33
2022-08-19T23:07:06.025Z,99126.55
2022-08-19T23:12:10.286Z,99132.90
2022-08-19T23:17:14.339Z,99140.62
2022-08-19T23:22:19.221Z,99142.37
2022-08-19T23:27:46.545Z,99142.34
2022-08-19T23:32:49.556Z,99147.51
2022-08-19T23:37:52.708Z,99156.63
2022-08-19T23:42:55.883Z,99168.27
2022-08-19T23:47:59.245Z,99182.58
2022-08-19T23:53:02.784Z,99184.58
2022-08-19T23:58:07.970Z,99184.18
